WZZ2819 EFTU-EPGD
Flight info
| Callsign | WZZ2819 |
|---|---|
| Flight time | 1h 6m |
| Altitude | 32000 |
| Route | EMPOM DCT NISIX DCT PENOR/N0336F210 N133 DOMAG T240 OGDAV |
| Aircraft | A21N/M-SDE1E2E3FGIJ1J4RWXY/LB1 |
Departure
| Time | 2026-04-26 11:46 |
|---|---|
| Airport | Turku Airport (EFTU) |
Arrival
| Time | 2026-04-26 12:52 |
|---|---|
| Airport | Gdańsk Lech Wałęsa Airport (EPGD) |
| Time | Latitude | Longitude | Altitude | Speed | Heading |
|---|---|---|---|---|---|
| 2026-04-26 11:05 | 60.51136 | 22.27278 | 172 ft | 0 kts | 148° |
| 2026-04-26 11:42 | 60.51307 | 22.27311 | 171 ft | 11 kts | 28° |
| 2026-04-26 11:43 | 60.51342 | 22.27449 | 170 ft | 12 kts | 83° |
| 2026-04-26 11:43 | 60.51352 | 22.27633 | 168 ft | 14 kts | 84° |
| 2026-04-26 11:43 | 60.51362 | 22.27852 | 164 ft | 16 kts | 84° |
| 2026-04-26 11:43 | 60.51373 | 22.28102 | 160 ft | 19 kts | 84° |
| 2026-04-26 11:44 | 60.51385 | 22.28377 | 155 ft | 16 kts | 85° |
| 2026-04-26 11:44 | 60.51393 | 22.28473 | 155 ft | 6 kts | 66° |
| 2026-04-26 11:44 | 60.51445 | 22.28528 | 154 ft | 11 kts | 358° |
| 2026-04-26 11:44 | 60.51503 | 22.28517 | 154 ft | 3 kts | 324° |
| 2026-04-26 11:45 | 60.51508 | 22.28435 | 154 ft | 13 kts | 265° |
| 2026-04-26 11:45 | 60.51480 | 22.27807 | 164 ft | 82 kts | 264° |
| 2026-04-26 11:45 | 60.51407 | 22.26184 | 167 ft | 148 kts | 265° |
| 2026-04-26 11:45 | 60.51284 | 22.23916 | 612 ft | 164 kts | 269° |
| 2026-04-26 11:46 | 60.51167 | 22.21721 | 1531 ft | 154 kts | 273° |
| 2026-04-26 11:46 | 60.51067 | 22.19717 | 2315 ft | 141 kts | 277° |
| 2026-04-26 11:46 | 60.50988 | 22.17783 | 2843 ft | 141 kts | 278° |
| 2026-04-26 11:46 | 60.50913 | 22.15789 | 3358 ft | 143 kts | 278° |
| 2026-04-26 11:47 | 60.50837 | 22.13735 | 3746 ft | 154 kts | 277° |
| 2026-04-26 11:47 | 60.50448 | 22.11524 | 4057 ft | 192 kts | 238° |
| 2026-04-26 11:47 | 60.49346 | 22.09732 | 4470 ft | 212 kts | 221° |
| 2026-04-26 11:47 | 60.48065 | 22.08046 | 4839 ft | 229 kts | 219° |
| 2026-04-26 11:48 | 60.46682 | 22.06243 | 5219 ft | 245 kts | 219° |
| 2026-04-26 11:48 | 60.45200 | 22.04260 | 5537 ft | 266 kts | 219° |
| 2026-04-26 11:48 | 60.43621 | 22.02097 | 5969 ft | 284 kts | 220° |
| 2026-04-26 11:48 | 60.41964 | 21.99801 | 6554 ft | 295 kts | 220° |
| 2026-04-26 11:49 | 60.40278 | 21.97458 | 7338 ft | 299 kts | 220° |
| 2026-04-26 11:49 | 60.38567 | 21.95074 | 8094 ft | 303 kts | 220° |
| 2026-04-26 11:49 | 60.36836 | 21.92654 | 8837 ft | 307 kts | 221° |
| 2026-04-26 11:49 | 60.35079 | 21.90196 | 9555 ft | 311 kts | 221° |
| 2026-04-26 11:50 | 60.33300 | 21.87704 | 10241 ft | 316 kts | 221° |
| 2026-04-26 11:50 | 60.31464 | 21.85125 | 10692 ft | 329 kts | 221° |
| 2026-04-26 11:50 | 60.29570 | 21.82469 | 11327 ft | 334 kts | 221° |
| 2026-04-26 11:50 | 60.27673 | 21.79823 | 12024 ft | 337 kts | 221° |
| 2026-04-26 11:51 | 60.25740 | 21.77137 | 12712 ft | 340 kts | 221° |
| 2026-04-26 11:51 | 60.23783 | 21.74416 | 13378 ft | 343 kts | 221° |
| 2026-04-26 11:51 | 60.21837 | 21.71719 | 14025 ft | 346 kts | 221° |
| 2026-04-26 11:51 | 60.19867 | 21.68919 | 14648 ft | 349 kts | 222° |
| 2026-04-26 11:52 | 60.17927 | 21.66069 | 15250 ft | 352 kts | 223° |
| 2026-04-26 11:52 | 60.16598 | 21.64101 | 15642 ft | 354 kts | 223° |
| 2026-04-26 11:52 | 60.13969 | 21.60216 | 16427 ft | 357 kts | 223° |
| 2026-04-26 11:52 | 60.11956 | 21.57249 | 16969 ft | 361 kts | 223° |
| 2026-04-26 11:53 | 60.09927 | 21.54271 | 17504 ft | 364 kts | 223° |
| 2026-04-26 11:53 | 60.07885 | 21.51281 | 17988 ft | 369 kts | 223° |
| 2026-04-26 11:53 | 60.05821 | 21.48263 | 18479 ft | 372 kts | 223° |
| 2026-04-26 11:54 | 60.01623 | 21.42146 | 19441 ft | 379 kts | 223° |
| 2026-04-26 11:54 | 59.99483 | 21.39037 | 19867 ft | 383 kts | 223° |
| 2026-04-26 11:54 | 59.97315 | 21.35898 | 20292 ft | 387 kts | 224° |
| 2026-04-26 11:54 | 59.95138 | 21.32748 | 20714 ft | 391 kts | 223° |
| 2026-04-26 11:55 | 59.92926 | 21.29547 | 21124 ft | 395 kts | 224° |
| 2026-04-26 11:55 | 59.90718 | 21.26362 | 21538 ft | 398 kts | 224° |
| 2026-04-26 11:55 | 59.88445 | 21.23081 | 21940 ft | 401 kts | 224° |
| 2026-04-26 11:55 | 59.86204 | 21.19856 | 22279 ft | 405 kts | 225° |
| 2026-04-26 11:56 | 59.83919 | 21.16580 | 22682 ft | 406 kts | 225° |
| 2026-04-26 11:56 | 59.81637 | 21.13308 | 23015 ft | 410 kts | 226° |
| 2026-04-26 11:56 | 59.79310 | 21.09972 | 23346 ft | 413 kts | 226° |
| 2026-04-26 11:56 | 59.76984 | 21.06644 | 23656 ft | 416 kts | 226° |
| 2026-04-26 11:57 | 59.74636 | 21.03288 | 23951 ft | 420 kts | 226° |
| 2026-04-26 11:57 | 59.72249 | 20.99888 | 24276 ft | 423 kts | 227° |
| 2026-04-26 11:57 | 59.69869 | 20.96507 | 24628 ft | 426 kts | 227° |
| 2026-04-26 11:57 | 59.67474 | 20.93102 | 24982 ft | 428 kts | 227° |
| 2026-04-26 11:58 | 59.65055 | 20.89671 | 25324 ft | 431 kts | 226° |
| 2026-04-26 11:58 | 59.62624 | 20.86230 | 25671 ft | 433 kts | 227° |
| 2026-04-26 11:58 | 59.60177 | 20.82772 | 25983 ft | 437 kts | 227° |
| 2026-04-26 11:58 | 59.57687 | 20.79266 | 26367 ft | 438 kts | 226° |
| 2026-04-26 11:59 | 59.55246 | 20.75836 | 26698 ft | 440 kts | 226° |
| 2026-04-26 11:59 | 59.52754 | 20.72335 | 27013 ft | 442 kts | 227° |
| 2026-04-26 11:59 | 59.50242 | 20.68819 | 27346 ft | 444 kts | 227° |
| 2026-04-26 11:59 | 59.47726 | 20.65295 | 27652 ft | 447 kts | 227° |
| 2026-04-26 12:00 | 59.45207 | 20.61773 | 27972 ft | 448 kts | 227° |
| 2026-04-26 12:00 | 59.42651 | 20.58204 | 28289 ft | 451 kts | 227° |
| 2026-04-26 12:00 | 59.40110 | 20.54660 | 28531 ft | 455 kts | 227° |
| 2026-04-26 12:00 | 59.37523 | 20.51066 | 28820 ft | 457 kts | 227° |
| 2026-04-26 12:01 | 59.34945 | 20.47501 | 29146 ft | 459 kts | 227° |
| 2026-04-26 12:01 | 59.32303 | 20.44010 | 29392 ft | 467 kts | 223° |
| 2026-04-26 12:01 | 59.29452 | 20.40785 | 29684 ft | 476 kts | 218° |
| 2026-04-26 12:01 | 59.26500 | 20.37842 | 30023 ft | 478 kts | 217° |
| 2026-04-26 12:02 | 59.23553 | 20.34954 | 30305 ft | 481 kts | 216° |
| 2026-04-26 12:02 | 59.21577 | 20.33024 | 30488 ft | 482 kts | 216° |
| 2026-04-26 12:02 | 59.17557 | 20.29091 | 30822 ft | 486 kts | 216° |
| 2026-04-26 12:02 | 59.14527 | 20.26119 | 31108 ft | 487 kts | 216° |
| 2026-04-26 12:03 | 59.11546 | 20.23198 | 31418 ft | 487 kts | 216° |
| 2026-04-26 12:03 | 59.08497 | 20.20208 | 31724 ft | 488 kts | 216° |
| 2026-04-26 12:03 | 59.05501 | 20.17276 | 31990 ft | 488 kts | 216° |
| 2026-04-26 12:03 | 59.02487 | 20.14331 | 32263 ft | 489 kts | 216° |
| 2026-04-26 12:04 | 58.99439 | 20.11361 | 32514 ft | 490 kts | 215° |
| 2026-04-26 12:04 | 58.96397 | 20.08398 | 32801 ft | 490 kts | 215° |
| 2026-04-26 12:04 | 58.93392 | 20.05480 | 33067 ft | 490 kts | 215° |
| 2026-04-26 12:04 | 58.90362 | 20.02541 | 33276 ft | 491 kts | 215° |
| 2026-04-26 12:05 | 58.87305 | 19.99584 | 33483 ft | 493 kts | 215° |
| 2026-04-26 12:05 | 58.84247 | 19.96636 | 33720 ft | 492 kts | 215° |
| 2026-04-26 12:05 | 58.81186 | 19.93689 | 33949 ft | 492 kts | 215° |
| 2026-04-26 12:05 | 58.78133 | 19.90753 | 34169 ft | 492 kts | 215° |
| 2026-04-26 12:06 | 58.75079 | 19.87820 | 34365 ft | 492 kts | 215° |
| 2026-04-26 12:06 | 58.72048 | 19.84912 | 34533 ft | 493 kts | 214° |
| 2026-04-26 12:06 | 58.68962 | 19.81960 | 34683 ft | 495 kts | 214° |
| 2026-04-26 12:06 | 58.65921 | 19.79058 | 34870 ft | 495 kts | 214° |
| 2026-04-26 12:07 | 58.62837 | 19.76122 | 35088 ft | 494 kts | 214° |
| 2026-04-26 12:07 | 58.59779 | 19.73215 | 35314 ft | 494 kts | 214° |
| 2026-04-26 12:07 | 58.56723 | 19.70318 | 35513 ft | 493 kts | 214° |
| 2026-04-26 12:07 | 58.53638 | 19.67397 | 35732 ft | 492 kts | 213° |
| 2026-04-26 12:08 | 58.50596 | 19.64521 | 35914 ft | 493 kts | 213° |
| 2026-04-26 12:08 | 58.47550 | 19.61646 | 36018 ft | 494 kts | 213° |
| 2026-04-26 12:08 | 58.44462 | 19.58745 | 36027 ft | 493 kts | 213° |
| 2026-04-26 12:09 | 58.38338 | 19.53005 | 36043 ft | 494 kts | 213° |
| 2026-04-26 12:09 | 58.32176 | 19.47248 | 36048 ft | 494 kts | 213° |
| 2026-04-26 12:10 | 58.26067 | 19.41555 | 36050 ft | 494 kts | 213° |
| 2026-04-26 12:10 | 58.19888 | 19.35825 | 36054 ft | 494 kts | 213° |
| 2026-04-26 12:11 | 58.13729 | 19.30130 | 36059 ft | 495 kts | 213° |
| 2026-04-26 12:11 | 58.07573 | 19.24467 | 36054 ft | 495 kts | 213° |
| 2026-04-26 12:12 | 58.01411 | 19.18816 | 36059 ft | 496 kts | 213° |
| 2026-04-26 12:12 | 57.95217 | 19.13158 | 36067 ft | 496 kts | 213° |
| 2026-04-26 12:13 | 57.89051 | 19.07550 | 36069 ft | 495 kts | 213° |
| 2026-04-26 12:13 | 57.82855 | 19.01931 | 36065 ft | 496 kts | 213° |
| 2026-04-26 12:14 | 57.76706 | 18.96380 | 36088 ft | 495 kts | 213° |
| 2026-04-26 12:14 | 57.70509 | 18.90810 | 36080 ft | 495 kts | 213° |
| 2026-04-26 12:15 | 57.64322 | 18.85265 | 36083 ft | 495 kts | 213° |
| 2026-04-26 12:15 | 57.58130 | 18.79738 | 36095 ft | 494 kts | 213° |
| 2026-04-26 12:16 | 57.51977 | 18.74266 | 36101 ft | 492 kts | 213° |
| 2026-04-26 12:16 | 57.45836 | 18.68825 | 36099 ft | 492 kts | 213° |
| 2026-04-26 12:17 | 57.39651 | 18.63361 | 36106 ft | 493 kts | 213° |
| 2026-04-26 12:17 | 57.33493 | 18.57947 | 36109 ft | 492 kts | 214° |
| 2026-04-26 12:18 | 57.27326 | 18.52543 | 36110 ft | 492 kts | 214° |
| 2026-04-26 12:18 | 57.21205 | 18.47198 | 36123 ft | 493 kts | 214° |
| 2026-04-26 12:19 | 57.15030 | 18.41832 | 36117 ft | 491 kts | 214° |
| 2026-04-26 12:19 | 57.08847 | 18.36476 | 36123 ft | 491 kts | 214° |
| 2026-04-26 12:20 | 57.02719 | 18.31184 | 35970 ft | 492 kts | 213° |
| 2026-04-26 12:20 | 56.99632 | 18.28524 | 36072 ft | 492 kts | 213° |
| 2026-04-26 12:20 | 56.96511 | 18.25845 | 36105 ft | 491 kts | 213° |
| 2026-04-26 12:21 | 56.90371 | 18.20583 | 36142 ft | 490 kts | 213° |
| 2026-04-26 12:21 | 56.84221 | 18.15331 | 36148 ft | 490 kts | 213° |
| 2026-04-26 12:22 | 56.78064 | 18.10093 | 36151 ft | 490 kts | 213° |
| 2026-04-26 12:22 | 56.71925 | 18.04888 | 36163 ft | 489 kts | 213° |
| 2026-04-26 12:23 | 56.65776 | 17.99695 | 36166 ft | 489 kts | 213° |
| 2026-04-26 12:23 | 56.59624 | 17.94515 | 36165 ft | 490 kts | 213° |
| 2026-04-26 12:24 | 56.53471 | 17.89391 | 36183 ft | 488 kts | 213° |
| 2026-04-26 12:24 | 56.47361 | 17.84425 | 36215 ft | 485 kts | 213° |
| 2026-04-26 12:25 | 56.38147 | 17.77181 | 36336 ft | 479 kts | 212° |
| 2026-04-26 12:25 | 56.32088 | 17.72580 | 36452 ft | 475 kts | 212° |
| 2026-04-26 12:26 | 56.26006 | 17.68089 | 36578 ft | 471 kts | 211° |
| 2026-04-26 12:26 | 56.19987 | 17.63775 | 36738 ft | 467 kts | 211° |
| 2026-04-26 12:27 | 56.13968 | 17.59588 | 36896 ft | 462 kts | 210° |
| 2026-04-26 12:27 | 56.07993 | 17.55561 | 37095 ft | 458 kts | 210° |
| 2026-04-26 12:28 | 56.02087 | 17.51706 | 37251 ft | 453 kts | 209° |
| 2026-04-26 12:28 | 55.96215 | 17.47489 | 36618 ft | 463 kts | 217° |
| 2026-04-26 12:29 | 55.93327 | 17.44789 | 36387 ft | 472 kts | 219° |
| 2026-04-26 12:29 | 55.90449 | 17.41964 | 36122 ft | 477 kts | 219° |
| 2026-04-26 12:29 | 55.84677 | 17.36309 | 35310 ft | 477 kts | 220° |
| 2026-04-26 12:30 | 55.81718 | 17.33426 | 34478 ft | 484 kts | 219° |
| 2026-04-26 12:30 | 55.78704 | 17.30498 | 33511 ft | 490 kts | 219° |
| 2026-04-26 12:30 | 55.75744 | 17.27638 | 32804 ft | 489 kts | 219° |
| 2026-04-26 12:31 | 55.69729 | 17.21866 | 31432 ft | 487 kts | 219° |
| 2026-04-26 12:31 | 55.66640 | 17.19261 | 30721 ft | 500 kts | 207° |
| 2026-04-26 12:31 | 55.63180 | 17.18269 | 30143 ft | 518 kts | 186° |
| 2026-04-26 12:31 | 55.59582 | 17.19243 | 29503 ft | 528 kts | 164° |
| 2026-04-26 12:32 | 55.56361 | 17.22119 | 29020 ft | 523 kts | 143° |
| 2026-04-26 12:32 | 55.53759 | 17.26486 | 28605 ft | 511 kts | 127° |
| 2026-04-26 12:32 | 55.49151 | 17.35647 | 27769 ft | 501 kts | 130° |
| 2026-04-26 12:33 | 55.46644 | 17.39947 | 27273 ft | 499 kts | 134° |
| 2026-04-26 12:33 | 55.44085 | 17.43936 | 26786 ft | 497 kts | 136° |
| 2026-04-26 12:33 | 55.41416 | 17.47839 | 26296 ft | 494 kts | 138° |
| 2026-04-26 12:33 | 55.38769 | 17.51588 | 25822 ft | 490 kts | 138° |
| 2026-04-26 12:34 | 55.36122 | 17.55281 | 25345 ft | 487 kts | 139° |
| 2026-04-26 12:34 | 55.33500 | 17.58925 | 24890 ft | 484 kts | 139° |
| 2026-04-26 12:34 | 55.30850 | 17.62596 | 24415 ft | 482 kts | 139° |
| 2026-04-26 12:34 | 55.28243 | 17.66197 | 23970 ft | 478 kts | 140° |
| 2026-04-26 12:35 | 55.25668 | 17.69751 | 23516 ft | 473 kts | 140° |
| 2026-04-26 12:35 | 55.23097 | 17.73301 | 22879 ft | 472 kts | 140° |
| 2026-04-26 12:35 | 55.20511 | 17.76862 | 22272 ft | 470 kts | 139° |
| 2026-04-26 12:35 | 55.17981 | 17.80338 | 21712 ft | 466 kts | 139° |
| 2026-04-26 12:36 | 55.15430 | 17.83836 | 21137 ft | 462 kts | 139° |
| 2026-04-26 12:36 | 55.12928 | 17.87261 | 20598 ft | 458 kts | 140° |
| 2026-04-26 12:36 | 55.10439 | 17.90586 | 20082 ft | 453 kts | 140° |
| 2026-04-26 12:36 | 55.07970 | 17.93920 | 19532 ft | 449 kts | 139° |
| 2026-04-26 12:37 | 55.05522 | 17.97290 | 18922 ft | 447 kts | 139° |
| 2026-04-26 12:37 | 55.03087 | 18.00640 | 18387 ft | 443 kts | 139° |
| 2026-04-26 12:37 | 55.00703 | 18.03912 | 17884 ft | 439 kts | 139° |
| 2026-04-26 12:37 | 54.98313 | 18.07148 | 17381 ft | 434 kts | 139° |
| 2026-04-26 12:38 | 54.95928 | 18.10351 | 16868 ft | 429 kts | 139° |
| 2026-04-26 12:38 | 54.93609 | 18.13435 | 16392 ft | 424 kts | 140° |
| 2026-04-26 12:38 | 54.91257 | 18.16534 | 15911 ft | 419 kts | 139° |
| 2026-04-26 12:38 | 54.88960 | 18.19532 | 15484 ft | 413 kts | 139° |
| 2026-04-26 12:39 | 54.86674 | 18.22489 | 14958 ft | 408 kts | 140° |
| 2026-04-26 12:39 | 54.84413 | 18.25456 | 14434 ft | 402 kts | 137° |
| 2026-04-26 12:39 | 54.82266 | 18.28475 | 13931 ft | 398 kts | 136° |
| 2026-04-26 12:39 | 54.80158 | 18.31458 | 13640 ft | 389 kts | 137° |
| 2026-04-26 12:40 | 54.78072 | 18.34358 | 13397 ft | 380 kts | 137° |
| 2026-04-26 12:40 | 54.76021 | 18.37157 | 13160 ft | 372 kts | 138° |
| 2026-04-26 12:40 | 54.74009 | 18.39877 | 12890 ft | 365 kts | 138° |
| 2026-04-26 12:40 | 54.72021 | 18.42542 | 12652 ft | 361 kts | 138° |
| 2026-04-26 12:41 | 54.70023 | 18.45209 | 12370 ft | 358 kts | 138° |
| 2026-04-26 12:41 | 54.68071 | 18.47816 | 12074 ft | 357 kts | 138° |
| 2026-04-26 12:41 | 54.66119 | 18.50412 | 11690 ft | 355 kts | 138° |
| 2026-04-26 12:41 | 54.64179 | 18.52988 | 11294 ft | 354 kts | 139° |
| 2026-04-26 12:42 | 54.62218 | 18.55593 | 10847 ft | 353 kts | 139° |
| 2026-04-26 12:42 | 54.60279 | 18.58162 | 10437 ft | 350 kts | 139° |
| 2026-04-26 12:42 | 54.58391 | 18.60660 | 10171 ft | 343 kts | 139° |
| 2026-04-26 12:42 | 54.56523 | 18.63126 | 9866 ft | 336 kts | 139° |
| 2026-04-26 12:43 | 54.54686 | 18.65550 | 9517 ft | 331 kts | 140° |
| 2026-04-26 12:43 | 54.52856 | 18.67963 | 9204 ft | 326 kts | 140° |
| 2026-04-26 12:43 | 54.51079 | 18.70302 | 8874 ft | 322 kts | 140° |
| 2026-04-26 12:43 | 54.49325 | 18.72610 | 8469 ft | 316 kts | 140° |
| 2026-04-26 12:44 | 54.47586 | 18.74895 | 8028 ft | 311 kts | 140° |
| 2026-04-26 12:44 | 54.45890 | 18.77121 | 7536 ft | 306 kts | 140° |
| 2026-04-26 12:44 | 54.44214 | 18.79304 | 7005 ft | 304 kts | 141° |
| 2026-04-26 12:44 | 54.42533 | 18.81483 | 6489 ft | 301 kts | 141° |
| 2026-04-26 12:45 | 54.40882 | 18.83630 | 6046 ft | 296 kts | 141° |
| 2026-04-26 12:45 | 54.39263 | 18.85739 | 5777 ft | 289 kts | 141° |
| 2026-04-26 12:45 | 54.37697 | 18.87781 | 5652 ft | 277 kts | 141° |
| 2026-04-26 12:45 | 54.36088 | 18.89465 | 5445 ft | 272 kts | 164° |
| 2026-04-26 12:46 | 54.34253 | 18.89554 | 5174 ft | 260 kts | 201° |
| 2026-04-26 12:46 | 54.32659 | 18.88345 | 4919 ft | 250 kts | 215° |
| 2026-04-26 12:46 | 54.31165 | 18.86895 | 4708 ft | 243 kts | 215° |
| 2026-04-26 12:46 | 54.29796 | 18.85331 | 4533 ft | 226 kts | 236° |
| 2026-04-26 12:47 | 54.29136 | 18.83086 | 4391 ft | 206 kts | 271° |
| 2026-04-26 12:47 | 54.29272 | 18.80751 | 4278 ft | 196 kts | 293° |
| 2026-04-26 12:47 | 54.29770 | 18.78585 | 4148 ft | 193 kts | 301° |
| 2026-04-26 12:47 | 54.30351 | 18.76528 | 3930 ft | 193 kts | 301° |
| 2026-04-26 12:48 | 54.30909 | 18.74469 | 3719 ft | 189 kts | 300° |
| 2026-04-26 12:48 | 54.31422 | 18.72449 | 3516 ft | 180 kts | 299° |
| 2026-04-26 12:48 | 54.31901 | 18.70500 | 3239 ft | 175 kts | 299° |
| 2026-04-26 12:48 | 54.32359 | 18.68614 | 2971 ft | 169 kts | 298° |
| 2026-04-26 12:49 | 54.32795 | 18.66813 | 2720 ft | 161 kts | 298° |
| 2026-04-26 12:49 | 54.33221 | 18.65059 | 2497 ft | 158 kts | 298° |
| 2026-04-26 12:49 | 54.33647 | 18.63317 | 2288 ft | 159 kts | 298° |
| 2026-04-26 12:49 | 54.34072 | 18.61576 | 2079 ft | 159 kts | 298° |
| 2026-04-26 12:50 | 54.34486 | 18.59876 | 1860 ft | 146 kts | 298° |
| 2026-04-26 12:50 | 54.34852 | 18.58381 | 1675 ft | 130 kts | 298° |
| 2026-04-26 12:50 | 54.35199 | 18.56970 | 1503 ft | 128 kts | 298° |
| 2026-04-26 12:50 | 54.35545 | 18.55579 | 1339 ft | 128 kts | 297° |
| 2026-04-26 12:51 | 54.35888 | 18.54176 | 1167 ft | 127 kts | 297° |
| 2026-04-26 12:51 | 54.36232 | 18.52785 | 994 ft | 127 kts | 297° |
| 2026-04-26 12:51 | 54.36572 | 18.51397 | 806 ft | 126 kts | 296° |
| 2026-04-26 12:51 | 54.36912 | 18.50013 | 625 ft | 126 kts | 295° |
| 2026-04-26 12:52 | 54.37252 | 18.48646 | 491 ft | 123 kts | 296° |
| 2026-04-26 12:52 | 54.37539 | 18.47500 | 463 ft | 79 kts | 293° |
| 2026-04-26 12:52 | 54.37682 | 18.46970 | 457 ft | 29 kts | 305° |
| 2026-04-26 12:52 | 54.37803 | 18.46764 | 456 ft | 20 kts | 322° |
| 2026-04-26 12:53 | 54.37893 | 18.46647 | 456 ft | 13 kts | 323° |
| 2026-04-26 12:53 | 54.37956 | 18.46574 | 456 ft | 9 kts | 348° |
| 2026-04-26 12:53 | 54.38017 | 18.46605 | 456 ft | 7 kts | 24° |
| 2026-04-26 12:53 | 54.38062 | 18.46644 | 457 ft | 6 kts | 32° |
| 2026-04-26 12:54 | 54.38090 | 18.46670 | 457 ft | 1 kts | 23° |
| 2026-04-26 12:54 | 54.38097 | 18.46675 | 457 ft | 0 kts | 22° |